Gaylord, Michigan
Current Conditions -  °F | °C
As of 2:53 PM on Thursday 27 Nov 2014 (Local Time) from KGLR Reporting Station
Light Snow Light Snow  
Wind Chill: 11°   Ceiling: 2600
Heat Index: 19°   Visibility: 6mi
Dew Point: 11°   Wind: 6mph
Humidity: 71%   Direction: NA
Pressure: 30.16"   Gusts: NA
Location:  45.03°N, 84.68°W
Report Text: KGLR 271953Z AUTO VRB05KT 6SM -SN FEW020 BKN026 OVC045 M07/M12 A3016 RMK AO2 SNB13 SLP234 P0000 T10721117
Loading
Personal Weather Stations






























Interactive Weather Map New forecast layout! Learn more

10-Day Weather Forecast

Advertisements
Track Severe Weather on mobile